sensor_id;sensor_type;location;lat;lon;timestamp;P1;P2;P0
84648;PMS5003;76539;52.392;16.888;2024-03-25T00:10:10;28.209039873283405;28.209039873283405;8.548193900994972
84648;PMS5003;76539;52.392;16.888;2024-03-25T00:25:10;17.806515259235848;17.806515259235848;7.631363682529648
84648;PMS5003;76539;52.392;16.888;2024-03-25T00:40:09;32.10483315380994;27.035648971629424;10.138368364361034
84648;PMS5003;76539;52.392;16.888;2024-03-25T00:55:09;20.671262664562416;20.671262664562416;6.890420888187472
84648;PMS5003;76539;52.392;16.888;2024-03-25T01:10:09;17.685852997588725;17.685852997588725;6.190048549156054
84648;PMS5003;76539;52.392;16.888;2024-03-25T01:25:09;13.404899487181064;11.617579555556922;3.5746398632482834
84648;PMS5003;76539;52.392;16.888;2024-03-25T01:40:09;8.956387043924321;8.956387043924321;3.5825548175697284
84648;PMS5003;76539;52.392;16.888;2024-03-25T01:55:09;10.755105941874925;10.755105941874925;3.585035313958308
84648;PMS5003;76539;52.392;16.888;2024-03-25T02:10:09;9.795368219729378;9.795368219729378;2.671464059926194
84648;PMS5003;76539;52.392;16.888;2024-03-25T02:25:09;15.396257297800767;13.68556204248957;5.1320857659335894
84648;PMS5003;76539;52.392;16.888;2024-03-25T02:40:09;13.262423940816179;13.262423940816179;4.144507481505055
84648;PMS5003;76539;52.392;16.888;2024-03-25T02:55:09;10.384572385442585;10.384572385442585;4.792879562511962
84648;PMS5003;76539;52.392;16.888;2024-03-25T03:10:09;12.391746862353116;12.391746862353116;3.097936715588279
84648;PMS5003;76539;52.392;16.888;2024-03-25T03:25:09;15.657513744029519;11.929534281165347;3.7279794628641714
84648;PMS5003;76539;52.392;16.888;2024-03-25T03:40:09;15.30094906586739;8.014782844025776;2.914466488736646
84648;PMS5003;76539;52.392;16.888;2024-03-25T03:55:09;13.008192495922982;13.008192495922982;4.33606416530766
84648;PMS5003;76539;52.392;16.888;2024-03-25T04:10:09;17.8950035109154;10.021201966112626;4.294800842619696
84648;PMS5003;76539;52.392;16.888;2024-03-25T04:25:09;14.128297067174373;14.128297067174373;3.532074266793593
84648;PMS5003;76539;52.392;16.888;2024-03-25T04:40:09;20.62489152885091;17.18740960737576;4.812474690065212
84648;PMS5003;76539;52.392;16.888;2024-03-25T04:55:09;10.946123934389703;10.946123934389703;4.104796475396139
84648;PMS5003;76539;52.392;16.888;2024-03-25T05:10:10;10.723298897765515;10.723298897765515;1.3404123622206894
84648;PMS5003;76539;52.392;16.888;2024-03-25T05:25:10;13.356228428221115;9.34935989975478;2.671245685644223
84648;PMS5003;76539;52.392;16.888;2024-03-25T05:40:10;6.308134987330898;6.308134987330898;1.4018077749624218
84648;PMS5003;76539;52.392;16.888;2024-03-25T05:55:10;23.75356587316888;13.274051517359082;2.7945371615492802
84648;PMS5003;76539;52.392;16.888;2024-03-25T06:10:09;6.99015251439256;6.99015251439256;2.097045754317768
84648;PMS5003;76539;52.392;16.888;2024-03-25T06:25:09;15.066852933135635;8.609630247506077;4.3048151237530385
84648;PMS5003;76539;52.392;16.888;2024-03-25T06:40:09;14.178225502907445;14.178225502907445;5.671290201162979
84648;PMS5003;76539;52.392;16.888;2024-03-25T06:55:09;15.20957026760845;15.20957026760845;5.069856755869483
84648;PMS5003;76539;52.392;16.888;2024-03-25T07:10:09;16.577189966918795;12.252705627722586;2.1622421695981036
84648;PMS5003;76539;52.392;16.888;2024-03-25T07:25:09;19.794570026126138;15.395776686986995;6.598190008708713
84648;PMS5003;76539;52.392;16.888;2024-03-25T07:40:09;24.494384571381147;18.01057689072143;6.483807680659716
84648;PMS5003;76539;52.392;16.888;2024-03-25T07:55:09;14.459928126538713;14.459928126538713;3.6149820316346783
84648;PMS5003;76539;52.392;16.888;2024-03-25T08:10:09;15.523589223074804;15.523589223074804;6.652966809889202
84648;PMS5003;76539;52.392;16.888;2024-03-25T08:25:09;18.187246546025566;13.640434909519175;4.5468116365063915
84648;PMS5003;76539;52.392;16.888;2024-03-25T08:40:09;14.237496031432554;11.240128445867805;5.245393274738309
84648;PMS5003;76539;52.392;16.888;2024-03-25T08:55:09;16.109252880812086;12.887402304649669;4.832775864243626
84648;PMS5003;76539;52.392;16.888;2024-03-25T09:10:09;16.346996540083108;16.346996540083108;6.227427253364993
84648;PMS5003;76539;52.392;16.888;2024-03-25T09:25:09;16.73670058321777;14.454423230960801;6.086072939351917
84648;PMS5003;76539;52.392;16.888;2024-03-25T09:40:09;7.843628011115329;7.843628011115329;2.3530884033345987
84648;PMS5003;76539;52.392;16.888;2024-03-25T09:55:09;14.365012029080832;9.576674686053888;3.1922248953512957
84648;PMS5003;76539;52.392;16.888;2024-03-25T10:10:09;22.49220692621981;14.16175991650877;4.16522350485552
84648;PMS5003;76539;52.392;16.888;2024-03-25T10:25:09;14.067008729171615;14.067008729171615;6.56460407361342
84648;PMS5003;76539;52.392;16.888;2024-03-25T10:40:09;31.59839361265828;22.42466643478975;10.193030197631703
84648;PMS5003;76539;52.392;16.888;2024-03-25T10:55:09;23.644707045199993;23.644707045199993;8.224245928765216
84648;PMS5003;76539;52.392;16.888;2024-03-25T11:10:10;19.24505019307173;19.24505019307173;6.077384271496336
84648;PMS5003;76539;52.392;16.888;2024-03-25T11:25:10;11.475086263416967;11.475086263416967;4.781285943090404
84648;PMS5003;76539;52.392;16.888;2024-03-25T11:40:10;13.35136988263293;13.35136988263293;5.722015663985542
84648;PMS5003;76539;52.392;16.888;2024-03-25T11:55:10;13.52759771110214;7.730055834915508;1.932513958728877
84648;PMS5003;76539;52.392;16.888;2024-03-25T12:10:09;13.791989242434374;8.866278798707812;1.970284177490625
84648;PMS5003;76539;52.392;16.888;2024-03-25T12:25:09;13.27606994706251;13.27606994706251;6.127416898644236
84648;PMS5003;76539;52.392;16.888;2024-03-25T12:40:09;10.119179554263566;10.119179554263566;3.0357538662790695
84648;PMS5003;76539;52.392;16.888;2024-03-25T12:55:09;13.477392717909472;13.477392717909472;4.1468900670490685
84648;PMS5003;76539;52.392;16.888;2024-03-25T13:10:09;8.397533155662927;8.397533155662927;2.099383288915732
84648;PMS5003;76539;52.392;16.888;2024-03-25T13:25:09;15.495561119808965;15.495561119808965;6.198224447923586
84648;PMS5003;76539;52.392;16.888;2024-03-25T13:40:09;7.301399956567924;7.301399956567924;2.086114273305121
84648;PMS5003;76539;52.392;16.888;2024-03-25T13:55:09;7.380842090345805;7.380842090345805;2.108812025813087
84648;PMS5003;76539;52.392;16.888;2024-03-25T14:10:09;9.651184849101522;9.651184849101522;3.217061616367174
84648;PMS5003;76539;52.392;16.888;2024-03-25T14:25:09;9.642474780379349;9.642474780379349;2.142772173417633
84648;PMS5003;76539;52.392;16.888;2024-03-25T14:40:09;8.585575511978544;8.585575511978544;4.292787755989272
84648;PMS5003;76539;52.392;16.888;2024-03-25T14:55:09;7.446373054152574;7.446373054152574;1.0637675791646535
84648;PMS5003;76539;52.392;16.888;2024-03-25T15:10:09;20.075246221509474;13.73569478313806;5.282959531976177
84648;PMS5003;76539;52.392;16.888;2024-03-25T15:25:09;14.675448751661031;14.675448751661031;6.289478036426156
84648;PMS5003;76539;52.392;16.888;2024-03-25T15:40:09;10.194604785810732;10.194604785810732;3.0583814357432195
84648;PMS5003;76539;52.392;16.888;2024-03-25T15:55:09;7.140989301648423;7.140989301648423;2.0402826576138353
84648;PMS5003;76539;52.392;16.888;2024-03-25T16:10:09;12.363326676355474;12.363326676355474;5.151386115148114
84648;PMS5003;76539;52.392;16.888;2024-03-25T16:25:09;11.182085510179297;11.182085510179297;4.066212912792471
84648;PMS5003;76539;52.392;16.888;2024-03-25T16:40:09;10.015512830204516;10.015512830204516;3.004653849061355
84648;PMS5003;76539;52.392;16.888;2024-03-25T16:55:09;6.979455866397007;6.979455866397007;1.994130247542002
84648;PMS5003;76539;52.392;16.888;2024-03-25T17:10:10;8.171551920559523;8.171551920559523;3.0643319702098206
84648;PMS5003;76539;52.392;16.888;2024-03-25T17:25:10;38.225505785125264;36.21363705959236;19.112752892562632
84648;PMS5003;76539;52.392;16.888;2024-03-25T17:40:10;8.879228215128737;8.879228215128737;2.9597427383762462
84648;PMS5003;76539;52.392;16.888;2024-03-25T18:05:09;15.703921345051457;15.703921345051457;8.313840712086066
84648;PMS5003;76539;52.392;16.888;2024-03-25T18:20:09;18.873058187062288;18.873058187062288;10.784604678321308
84648;PMS5003;76539;52.392;16.888;2024-03-25T18:35:10;38.97676200794617;24.803394005056653;13.28753250270892
84648;PMS5003;76539;52.392;16.888;2024-03-25T18:50:09;11.35153034767767;11.35153034767767;5.239167852774309
84648;PMS5003;76539;52.392;16.888;2024-03-25T19:05:10;29.059360126561725;29.059360126561725;15.384367125826795
84648;PMS5003;76539;52.392;16.888;2024-03-25T19:20:10;49.92137833338456;37.229502485913905;18.614751242956952
84648;PMS5003;76539;52.392;16.888;2024-03-25T19:35:10;47.46626470573732;30.811434984425983;17.48757120737691
84648;PMS5003;76539;52.392;16.888;2024-03-25T19:50:09;42.423245703517175;39.095932315006024;19.132051983939117
84648;PMS5003;76539;52.392;16.888;2024-03-25T20:05:09;40.177276149902795;27.0581655703427;12.29916616833759
84648;PMS5003;76539;52.392;16.888;2024-03-25T20:20:09;45.3158859616122;42.07903696435419;18.611881734233584
84648;PMS5003;76539;52.392;16.888;2024-03-25T20:35:09;40.09728160653197;33.02129073479104;18.083087783337948
84648;PMS5003;76539;52.392;16.888;2024-03-25T20:50:09;28.98285034141849;18.79968670794713;8.616523074475769
84648;PMS5003;76539;52.392;16.888;2024-03-25T21:05:09;24.80476487724991;23.25446707242179;10.076935731382775
84648;PMS5003;76539;52.392;16.888;2024-03-25T21:20:09;26.02895741775784;22.966727133315743;8.421133282215772
84648;PMS5003;76539;52.392;16.888;2024-03-25T21:35:09;29.698073680419217;26.652117405504427;9.899357893473072
84648;PMS5003;76539;52.392;16.888;2024-03-25T21:50:09;43.477132784431355;38.9794983584557;14.992114753252192
84648;PMS5003;76539;52.392;16.888;2024-03-25T22:05:09;34.5676578730001;26.477354966553268;12.503195400872377
84648;PMS5003;76539;52.392;16.888;2024-03-25T22:20:09;25.490860626169326;21.84930910814514;10.196344250467732
84648;PMS5003;76539;52.392;16.888;2024-03-25T22:35:09;30.082659419604035;24.212872215778855;10.27212760669406
84648;PMS5003;76539;52.392;16.888;2024-03-25T22:50:09;36.77461792817014;33.16926322932993;15.863560674896922
84648;PMS5003;76539;52.392;16.888;2024-03-25T23:05:09;36.58220258874342;31.65767531718181;16.884093502496963
84648;PMS5003;76539;52.392;16.888;2024-03-25T23:20:09;34.12871654884659;24.885522483533972;12.0872537777165
84648;PMS5003;76539;52.392;16.888;2024-03-25T23:35:09;34.8033090568528;26.614295161122726;18.425281265392655
84648;PMS5003;76539;52.392;16.888;2024-03-25T23:50:09;27.650678544268587;21.58101740040475;6.069661143863836
